createdAt,value
2018-01-27T00:02:09.307Z,14.40
2018-01-27T00:04:36.783Z,13.30
2018-01-27T00:07:04.247Z,13.87
2018-01-27T00:09:31.735Z,13.10
2018-01-27T00:11:59.202Z,13.20
2018-01-27T00:14:26.682Z,13.50
2018-01-27T00:16:54.232Z,13.23
2018-01-27T00:19:21.725Z,13.97
2018-01-27T00:21:49.187Z,13.70
2018-01-27T00:24:16.674Z,13.67
2018-01-27T00:26:44.126Z,13.53
2018-01-27T00:29:11.607Z,14.23
2018-01-27T00:31:39.075Z,14.93
2018-01-27T00:34:06.554Z,13.80
2018-01-27T00:36:34.014Z,14.93
2018-01-27T00:39:01.491Z,15.13
2018-01-27T00:41:31.179Z,14.53
2018-01-27T00:43:58.668Z,14.20
2018-01-27T00:46:26.130Z,14.73
2018-01-27T00:48:53.612Z,16.43
2018-01-27T00:51:21.078Z,15.83
2018-01-27T00:53:48.562Z,15.80
2018-01-27T00:56:16.027Z,15.87
2018-01-27T00:58:43.515Z,16.43
2018-01-27T01:01:10.979Z,17.70
2018-01-27T01:03:38.459Z,16.37
2018-01-27T01:06:05.917Z,16.93
2018-01-27T01:08:33.402Z,17.47
2018-01-27T01:11:00.858Z,17.90
2018-01-27T01:13:28.319Z,16.37
2018-01-27T01:15:55.800Z,15.53
2018-01-27T01:18:23.266Z,14.90
2018-01-27T01:20:50.754Z,15.30
2018-01-27T01:23:18.212Z,14.97
2018-01-27T01:25:45.691Z,15.07
2018-01-27T01:28:13.147Z,14.53
2018-01-27T01:30:40.623Z,15.07
2018-01-27T01:33:08.088Z,13.70
2018-01-27T01:35:35.566Z,15.47
2018-01-27T01:38:03.027Z,15.50
2018-01-27T01:40:30.518Z,15.87
2018-01-27T01:46:00.110Z,14.73
2018-01-27T01:48:27.635Z,13.57
2018-01-27T01:50:55.119Z,13.77
2018-01-27T01:53:22.582Z,14.57
2018-01-27T01:55:50.072Z,14.43
2018-01-27T01:58:17.530Z,15.10
2018-01-27T02:00:45.008Z,16.87
2018-01-27T02:03:12.466Z,16.20
2018-01-27T02:05:39.946Z,15.53
2018-01-27T02:08:07.407Z,15.60
2018-01-27T02:10:34.891Z,15.37
2018-01-27T02:13:02.355Z,15.00
2018-01-27T02:15:29.850Z,15.03
2018-01-27T02:17:57.315Z,15.03
2018-01-27T02:20:24.798Z,14.43
2018-01-27T02:22:52.254Z,14.40
2018-01-27T02:25:19.743Z,13.93
2018-01-27T02:27:47.200Z,14.00
2018-01-27T02:30:14.684Z,14.60
2018-01-27T02:32:42.149Z,14.47
2018-01-27T02:35:09.639Z,14.70
2018-01-27T02:37:37.106Z,14.83
2018-01-27T02:40:04.595Z,13.90
2018-01-27T02:42:32.065Z,14.37
2018-01-27T02:44:59.535Z,14.77
2018-01-27T02:47:27.022Z,14.20
2018-01-27T02:49:54.486Z,14.90
2018-01-27T02:52:21.966Z,13.80
2018-01-27T02:54:49.427Z,12.80
2018-01-27T02:57:16.911Z,13.23
2018-01-27T02:59:44.370Z,13.10
2018-01-27T03:02:11.846Z,12.83
2018-01-27T03:04:39.545Z,12.27
2018-01-27T03:07:07.029Z,12.60
2018-01-27T03:09:34.484Z,14.27
2018-01-27T03:12:01.982Z,13.90
2018-01-27T03:14:29.446Z,14.43
2018-01-27T03:16:56.929Z,13.93
2018-01-27T03:19:24.386Z,15.60
2018-01-27T03:21:51.875Z,17.37
2018-01-27T03:24:19.338Z,15.77
2018-01-27T03:26:46.820Z,15.70
2018-01-27T03:29:14.294Z,15.53
2018-01-27T03:31:41.781Z,16.37
2018-01-27T03:34:09.238Z,15.03
2018-01-27T03:36:36.719Z,15.70
2018-01-27T03:39:04.176Z,14.47
2018-01-27T03:41:32.058Z,16.30
2018-01-27T03:43:59.518Z,16.07
2018-01-27T03:46:26.997Z,15.53
2018-01-27T03:48:54.449Z,16.40
2018-01-27T03:51:21.931Z,17.57
2018-01-27T03:53:49.394Z,16.50
2018-01-27T03:56:16.874Z,19.13
2018-01-27T03:58:44.334Z,18.03
2018-01-27T04:01:11.819Z,18.80
2018-01-27T04:03:39.290Z,20.27
2018-01-27T04:06:06.780Z,17.63
2018-01-27T04:08:34.247Z,16.60
2018-01-27T04:11:01.714Z,17.40
2018-01-27T04:13:29.198Z,16.27
2018-01-27T04:15:56.670Z,17.70
2018-01-27T04:18:24.150Z,18.23
2018-01-27T04:20:51.619Z,17.13
2018-01-27T04:23:19.095Z,16.80
2018-01-27T04:25:46.567Z,17.87
2018-01-27T04:28:14.053Z,17.23
2018-01-27T04:30:41.518Z,17.00
2018-01-27T04:33:08.998Z,18.20
2018-01-27T04:35:36.462Z,17.80
2018-01-27T04:38:03.943Z,17.70
2018-01-27T04:40:31.451Z,16.27
2018-01-27T04:42:58.927Z,18.13
2018-01-27T04:45:26.392Z,16.60
2018-01-27T04:47:53.896Z,21.83
2018-01-27T04:50:21.350Z,21.23
2018-01-27T04:52:48.833Z,21.03
2018-01-27T04:55:16.290Z,20.43
2018-01-27T04:57:43.766Z,18.97
2018-01-27T05:00:11.223Z,18.67
2018-01-27T05:02:38.705Z,21.13
2018-01-27T05:05:06.167Z,21.63
2018-01-27T05:07:33.655Z,21.00
2018-01-27T05:10:01.110Z,21.20
2018-01-27T05:12:28.602Z,20.87
2018-01-27T05:14:56.065Z,21.97
2018-01-27T05:17:23.548Z,20.10
2018-01-27T05:19:51.013Z,20.57
2018-01-27T05:22:18.495Z,21.50
2018-01-27T05:24:45.956Z,20.33
2018-01-27T05:27:13.455Z,20.43
2018-01-27T05:29:40.922Z,21.20
2018-01-27T05:32:08.386Z,20.70
2018-01-27T05:34:35.862Z,21.83
2018-01-27T05:37:03.327Z,21.73
2018-01-27T05:39:30.814Z,21.93
2018-01-27T05:41:58.278Z,20.77
2018-01-27T05:44:25.759Z,20.70
2018-01-27T05:46:53.223Z,20.17
2018-01-27T05:49:20.706Z,20.37
2018-01-27T05:51:48.168Z,21.80
2018-01-27T05:54:15.646Z,21.67
2018-01-27T05:56:43.111Z,21.83
2018-01-27T05:59:10.603Z,20.87
2018-01-27T06:01:38.062Z,22.03
2018-01-27T06:04:05.550Z,20.60
2018-01-27T06:06:33.003Z,20.93
2018-01-27T06:09:00.483Z,21.37
2018-01-27T06:11:27.952Z,21.83
2018-01-27T06:13:55.435Z,20.63
2018-01-27T06:16:22.891Z,22.60
2018-01-27T06:18:50.374Z,21.10
2018-01-27T06:21:17.846Z,22.43
2018-01-27T06:23:45.322Z,21.77
2018-01-27T06:26:12.786Z,22.00
2018-01-27T06:28:40.262Z,23.53
2018-01-27T06:31:07.722Z,21.73
2018-01-27T06:33:35.202Z,22.20
2018-01-27T06:36:02.697Z,22.80
2018-01-27T06:38:30.174Z,24.70
2018-01-27T06:40:57.631Z,24.30
2018-01-27T06:43:25.107Z,24.60
2018-01-27T06:45:52.569Z,23.63
2018-01-27T06:48:20.058Z,23.43
2018-01-27T06:50:47.515Z,23.90
2018-01-27T06:53:14.974Z,23.00
2018-01-27T06:55:42.460Z,23.77
2018-01-27T06:58:09.926Z,23.70
2018-01-27T07:00:37.472Z,23.23
2018-01-27T07:03:04.939Z,23.77
2018-01-27T07:05:32.418Z,23.17
2018-01-27T07:07:59.903Z,21.87
2018-01-27T07:10:27.382Z,23.50
2018-01-27T07:12:54.850Z,21.87
2018-01-27T07:15:22.327Z,22.60
2018-01-27T07:17:49.803Z,22.90
2018-01-27T07:20:17.279Z,21.30
2018-01-27T07:22:44.738Z,23.93
2018-01-27T07:25:12.224Z,20.83
2018-01-27T07:27:39.693Z,21.00
2018-01-27T07:30:07.170Z,21.17
2018-01-27T07:32:34.632Z,21.37
2018-01-27T07:35:02.126Z,21.30
2018-01-27T07:37:29.595Z,20.80
2018-01-27T07:39:57.114Z,22.10
2018-01-27T07:42:24.570Z,21.77
2018-01-27T07:44:52.051Z,22.30
2018-01-27T07:47:19.519Z,21.83
2018-01-27T07:49:47.015Z,23.50
2018-01-27T07:52:14.475Z,23.20
2018-01-27T07:54:41.946Z,23.60
2018-01-27T07:57:09.412Z,22.57
2018-01-27T07:59:36.935Z,24.10
2018-01-27T08:02:04.399Z,27.87
2018-01-27T08:04:31.882Z,21.47
2018-01-27T08:06:59.342Z,18.70
2018-01-27T08:09:26.838Z,18.67
2018-01-27T08:11:54.299Z,19.07
2018-01-27T08:14:21.761Z,18.97
2018-01-27T08:16:49.245Z,19.30
2018-01-27T08:19:16.702Z,20.27
2018-01-27T08:21:44.179Z,20.17
2018-01-27T08:24:11.647Z,19.33
2018-01-27T08:26:39.130Z,21.67
2018-01-27T08:29:06.597Z,21.17
2018-01-27T08:31:34.082Z,20.90
2018-01-27T08:34:01.547Z,21.00
2018-01-27T08:36:29.030Z,19.30
2018-01-27T08:38:56.506Z,19.17
2018-01-27T08:41:23.990Z,19.23
2018-01-27T08:43:51.459Z,19.20
2018-01-27T08:46:18.943Z,19.20
2018-01-27T08:48:46.411Z,18.70
2018-01-27T08:51:13.898Z,18.47
2018-01-27T08:53:41.358Z,18.23
2018-01-27T08:56:08.845Z,16.27
2018-01-27T08:58:36.318Z,16.27
2018-01-27T09:01:03.790Z,16.13
2018-01-27T09:03:31.287Z,16.70
2018-01-27T09:05:58.767Z,14.93
2018-01-27T09:08:26.232Z,16.60
2018-01-27T09:10:53.710Z,14.40
2018-01-27T09:13:21.168Z,14.43
2018-01-27T09:15:48.657Z,15.93
2018-01-27T09:18:16.120Z,14.57
2018-01-27T09:20:43.602Z,16.30
2018-01-27T09:23:11.059Z,16.03
2018-01-27T09:25:38.555Z,18.23
2018-01-27T09:28:06.016Z,18.00
2018-01-27T09:30:33.512Z,20.70
2018-01-27T09:33:00.971Z,17.57
2018-01-27T09:35:28.442Z,16.73
2018-01-27T09:37:55.936Z,17.30
2018-01-27T09:40:23.395Z,17.70
2018-01-27T09:42:50.874Z,19.20
2018-01-27T09:45:18.354Z,19.63
2018-01-27T09:47:45.845Z,20.10
2018-01-27T09:50:13.325Z,17.57
2018-01-27T09:52:40.814Z,17.33
2018-01-27T09:55:08.287Z,16.07
2018-01-27T09:57:35.789Z,16.80
2018-01-27T10:00:03.247Z,16.77
2018-01-27T10:02:30.723Z,17.10
2018-01-27T10:04:58.612Z,17.43
2018-01-27T10:07:26.103Z,16.03
2018-01-27T10:09:53.562Z,17.07
2018-01-27T10:12:21.043Z,18.73
2018-01-27T10:14:48.607Z,16.80
2018-01-27T10:17:16.086Z,17.90
2018-01-27T10:19:43.547Z,16.47
2018-01-27T10:22:11.039Z,17.53
2018-01-27T10:24:38.508Z,16.87
2018-01-27T10:27:05.988Z,17.63
2018-01-27T10:29:33.446Z,17.90
2018-01-27T10:32:00.930Z,16.73
2018-01-27T10:34:28.495Z,17.20
2018-01-27T10:36:55.980Z,17.77
2018-01-27T10:39:23.444Z,17.33
2018-01-27T10:41:50.923Z,17.00
2018-01-27T10:44:18.599Z,17.97
2018-01-27T10:46:46.314Z,18.27
2018-01-27T10:49:13.776Z,16.93
2018-01-27T10:51:41.259Z,17.40
2018-01-27T10:54:08.962Z,16.87
2018-01-27T10:56:36.423Z,16.00
2018-01-27T10:59:03.914Z,16.67
2018-01-27T11:01:31.406Z,16.67
2018-01-27T11:03:58.890Z,18.40
2018-01-27T11:06:26.352Z,16.77
2018-01-27T11:08:53.839Z,16.00
2018-01-27T11:11:21.319Z,16.70
2018-01-27T11:13:48.805Z,17.73
2018-01-27T11:16:16.291Z,16.90
2018-01-27T11:18:43.771Z,17.37
2018-01-27T11:21:11.243Z,17.50
2018-01-27T11:23:38.728Z,16.40
2018-01-27T11:26:06.183Z,17.93
2018-01-27T11:28:33.668Z,18.13
2018-01-27T11:31:01.147Z,17.33
2018-01-27T11:33:28.627Z,18.10
2018-01-27T11:35:56.082Z,18.17
2018-01-27T11:38:23.566Z,17.70
2018-01-27T11:40:51.040Z,17.63
2018-01-27T11:43:18.522Z,17.03
2018-01-27T11:45:45.986Z,16.83
2018-01-27T11:48:14.201Z,17.63
2018-01-27T11:50:41.778Z,16.10
2018-01-27T11:53:09.282Z,16.87
2018-01-27T11:55:36.837Z,17.37
2018-01-27T11:58:04.316Z,15.20
2018-01-27T12:00:31.774Z,15.60
2018-01-27T12:02:59.263Z,14.53
2018-01-27T12:05:26.718Z,15.53
2018-01-27T12:07:54.190Z,16.57
2018-01-27T12:10:21.658Z,13.37
2018-01-27T12:12:49.139Z,15.00
2018-01-27T12:15:16.598Z,14.70
2018-01-27T12:17:44.102Z,14.60
2018-01-27T12:20:11.649Z,13.60
2018-01-27T12:22:39.114Z,13.63
2018-01-27T12:25:06.606Z,10.80
2018-01-27T12:27:34.067Z,11.17
2018-01-27T12:30:01.665Z,10.60
2018-01-27T12:32:29.133Z,8.40
2018-01-27T12:34:56.611Z,9.30
2018-01-27T12:37:24.189Z,7.60
2018-01-27T12:39:51.671Z,8.17
2018-01-27T12:42:19.131Z,8.63
2018-01-27T12:44:46.615Z,7.27
2018-01-27T12:47:14.079Z,7.80
2018-01-27T12:49:41.557Z,7.33
2018-01-27T12:52:09.018Z,7.43
2018-01-27T12:54:36.499Z,6.80
2018-01-27T12:57:03.952Z,6.87
2018-01-27T12:59:31.451Z,6.63
2018-01-27T13:01:58.906Z,6.80
2018-01-27T13:04:26.382Z,6.97
2018-01-27T13:06:53.834Z,6.20
2018-01-27T13:09:21.303Z,6.17
2018-01-27T13:11:48.828Z,6.30
2018-01-27T13:14:16.306Z,6.13
2018-01-27T13:16:43.754Z,6.17
2018-01-27T13:19:11.238Z,6.83
2018-01-27T13:21:38.706Z,5.93
2018-01-27T13:24:06.211Z,6.53
2018-01-27T13:26:33.678Z,6.53
2018-01-27T13:29:01.166Z,6.37
2018-01-27T13:31:28.623Z,6.33
2018-01-27T13:33:56.561Z,6.77
2018-01-27T13:36:24.014Z,6.33
2018-01-27T13:38:51.466Z,5.87
2018-01-27T13:41:18.938Z,5.77
2018-01-27T13:43:46.399Z,6.40
2018-01-27T13:46:13.896Z,6.37
2018-01-27T13:48:41.565Z,6.70
2018-01-27T13:51:09.246Z,6.83
2018-01-27T13:53:36.789Z,6.90
2018-01-27T13:56:07.333Z,9.77
2018-01-27T13:58:35.062Z,5.60
2018-01-27T14:01:02.663Z,6.20
2018-01-27T14:03:30.217Z,7.47
2018-01-27T14:05:57.810Z,6.97
2018-01-27T14:08:25.466Z,6.33
2018-01-27T14:10:57.873Z,6.20
2018-01-27T14:13:25.773Z,4.83
2018-01-27T14:15:53.301Z,3.90
2018-01-27T14:18:20.803Z,3.47
2018-01-27T14:20:48.648Z,3.23
2018-01-27T14:29:30.343Z,3.40
2018-01-27T14:32:04.290Z,3.27
2018-01-27T14:37:37.770Z,3.23
2018-01-27T14:46:10.560Z,4.33
2018-01-27T14:49:02.111Z,3.67
2018-01-27T14:57:08.531Z,3.60
2018-01-27T14:59:36.167Z,4.10
2018-01-27T15:05:06.761Z,3.90
2018-01-27T15:07:34.419Z,3.90
2018-01-27T15:15:37.391Z,3.67
2018-01-27T15:21:09.201Z,3.80
2018-01-27T15:31:46.916Z,4.30
2018-01-27T15:34:15.235Z,4.00
2018-01-27T15:45:52.986Z,4.10
2018-01-27T15:48:21.139Z,4.13
2018-01-27T15:50:51.930Z,3.83
2018-01-27T15:53:22.875Z,4.20
2018-01-27T16:04:36.308Z,4.07
2018-01-27T16:07:03.867Z,4.60
2018-01-27T16:09:52.816Z,5.70
2018-01-27T16:17:58.707Z,5.93
2018-01-27T16:38:24.760Z,18.47
2018-01-27T16:40:52.342Z,6.23
2018-01-27T16:43:19.904Z,6.10
2018-01-27T16:45:47.486Z,6.33
2018-01-27T16:48:15.216Z,6.30
2018-01-27T16:50:42.693Z,6.23
2018-01-27T16:53:10.167Z,5.83
2018-01-27T16:55:37.634Z,5.93
2018-01-27T16:58:05.130Z,5.80
2018-01-27T17:00:32.599Z,6.70
2018-01-27T17:03:00.079Z,6.27
2018-01-27T17:05:27.535Z,6.77
2018-01-27T17:07:55.024Z,6.87
2018-01-27T17:10:22.494Z,6.80
2018-01-27T17:12:49.974Z,7.00
2018-01-27T17:15:17.444Z,7.77
2018-01-27T17:17:45.770Z,7.33
2018-01-27T17:20:13.235Z,7.80
2018-01-27T17:22:40.745Z,6.70
2018-01-27T17:25:08.220Z,6.30
2018-01-27T17:27:35.697Z,6.70
2018-01-27T17:30:03.158Z,7.03
2018-01-27T17:32:30.653Z,7.20
2018-01-27T17:34:58.108Z,7.27
2018-01-27T17:37:25.667Z,6.83
2018-01-27T17:39:53.307Z,8.03
2018-01-27T17:42:20.989Z,8.10
2018-01-27T17:44:48.535Z,8.23
2018-01-27T17:47:16.309Z,7.70
2018-01-27T17:49:43.783Z,8.07
2018-01-27T17:52:11.243Z,8.13
2018-01-27T17:54:38.731Z,9.07
2018-01-27T17:57:06.191Z,8.50
2018-01-27T17:59:33.670Z,8.40
2018-01-27T18:02:01.171Z,8.50
2018-01-27T18:04:28.628Z,8.03
2018-01-27T18:06:56.109Z,7.53
2018-01-27T18:09:23.586Z,7.83
2018-01-27T18:11:51.066Z,7.37
2018-01-27T18:14:18.554Z,7.77
2018-01-27T18:16:46.349Z,6.40
2018-01-27T18:19:13.837Z,6.13
2018-01-27T18:21:41.307Z,6.03
2018-01-27T18:24:08.825Z,7.17
2018-01-27T18:26:36.287Z,6.97
2018-01-27T18:29:03.758Z,6.13
2018-01-27T18:31:31.214Z,6.23
2018-01-27T18:33:58.734Z,6.90
2018-01-27T18:36:26.194Z,6.57
2018-01-27T18:38:53.705Z,6.37
2018-01-27T18:41:21.170Z,6.33
2018-01-27T18:43:53.838Z,6.60
2018-01-27T18:46:21.304Z,6.23
2018-01-27T18:48:48.790Z,6.33
2018-01-27T18:51:16.246Z,6.30
2018-01-27T18:53:43.790Z,7.10
2018-01-27T18:56:11.264Z,7.20
2018-01-27T18:58:38.760Z,6.83
2018-01-27T19:01:06.283Z,7.37
2018-01-27T19:03:33.765Z,6.73
2018-01-27T19:06:01.226Z,8.63
2018-01-27T19:08:28.694Z,8.07
2018-01-27T19:10:56.178Z,10.03
2018-01-27T19:13:23.648Z,9.00
2018-01-27T19:15:51.130Z,7.77
2018-01-27T19:18:18.608Z,7.70
2018-01-27T19:20:46.094Z,7.70
2018-01-27T19:23:13.611Z,6.87
2018-01-27T19:25:41.086Z,6.57
2018-01-27T19:28:08.560Z,7.10
2018-01-27T19:30:36.043Z,6.47
2018-01-27T19:33:03.506Z,6.90
2018-01-27T19:35:30.991Z,6.97
2018-01-27T19:37:58.479Z,6.47
2018-01-27T19:40:25.973Z,6.93
2018-01-27T19:42:53.453Z,6.30
2018-01-27T19:45:20.951Z,6.50
2018-01-27T19:47:48.406Z,6.37
2018-01-27T19:50:15.891Z,6.83
2018-01-27T19:52:43.355Z,6.23
2018-01-27T19:55:10.847Z,7.37
2018-01-27T19:57:38.307Z,7.40
2018-01-27T20:00:05.802Z,8.20
2018-01-27T20:02:33.288Z,7.60
2018-01-27T20:05:00.785Z,8.50
2018-01-27T20:07:28.262Z,8.53
2018-01-27T20:09:55.747Z,9.83
2018-01-27T20:12:23.214Z,10.43
2018-01-27T20:14:50.699Z,8.07
2018-01-27T20:17:18.163Z,9.93
2018-01-27T20:19:45.683Z,8.80
2018-01-27T20:22:13.150Z,7.00
2018-01-27T20:24:40.604Z,7.07
2018-01-27T20:27:08.132Z,6.70
2018-01-27T20:29:35.618Z,6.53
2018-01-27T20:32:03.107Z,7.17
2018-01-27T20:34:30.622Z,6.80
2018-01-27T20:36:58.222Z,6.20
2018-01-27T20:39:25.670Z,6.07
2018-01-27T20:41:53.155Z,6.10
2018-01-27T20:44:20.621Z,6.50
2018-01-27T20:46:48.090Z,6.27
2018-01-27T20:49:15.566Z,6.37
2018-01-27T20:51:43.091Z,6.30
2018-01-27T20:54:10.548Z,6.37
2018-01-27T20:56:38.020Z,6.37
2018-01-27T20:59:05.546Z,5.70
2018-01-27T21:01:33.053Z,5.60
2018-01-27T21:04:00.518Z,5.87
2018-01-27T21:06:28.004Z,6.27
2018-01-27T21:08:55.466Z,5.80
2018-01-27T21:11:22.955Z,5.53
2018-01-27T21:13:50.419Z,5.80
2018-01-27T21:16:17.900Z,6.10
2018-01-27T21:18:45.358Z,6.40
2018-01-27T21:21:12.870Z,5.80
2018-01-27T21:23:40.350Z,5.83
2018-01-27T21:26:07.838Z,5.90
2018-01-27T21:28:35.298Z,5.43
2018-01-27T21:31:02.779Z,5.80
2018-01-27T21:33:30.282Z,5.30
2018-01-27T21:35:57.754Z,5.13
2018-01-27T21:38:25.211Z,5.57
2018-01-27T21:40:52.666Z,5.57
2018-01-27T21:43:20.173Z,5.40
2018-01-27T21:45:47.630Z,5.60
2018-01-27T21:48:15.113Z,4.87
2018-01-27T21:50:42.574Z,4.87
2018-01-27T21:53:10.051Z,4.97
2018-01-27T21:55:37.505Z,4.20
2018-01-27T21:58:04.987Z,4.67
2018-01-27T22:00:32.470Z,4.73
2018-01-27T22:02:59.960Z,4.53
2018-01-27T22:05:27.417Z,4.93
2018-01-27T22:07:54.919Z,4.67
2018-01-27T22:10:22.379Z,4.83
2018-01-27T22:12:49.872Z,4.83
2018-01-27T22:15:17.342Z,4.90
2018-01-27T22:17:44.829Z,4.90
2018-01-27T22:20:12.302Z,4.23
2018-01-27T22:22:39.869Z,4.73
2018-01-27T22:25:07.322Z,4.83
2018-01-27T22:27:34.835Z,4.50
2018-01-27T22:30:02.299Z,4.70
2018-01-27T22:32:29.785Z,4.40
2018-01-27T22:34:57.263Z,4.47
2018-01-27T22:37:24.747Z,4.33
2018-01-27T22:39:52.204Z,4.90
2018-01-27T22:42:19.685Z,5.20
2018-01-27T22:44:47.143Z,4.77
2018-01-27T22:47:14.632Z,5.10
2018-01-27T22:49:42.093Z,4.27
2018-01-27T22:52:09.567Z,4.30
2018-01-27T22:54:37.030Z,4.43
2018-01-27T22:57:04.521Z,4.00
2018-01-27T22:59:31.986Z,4.37
2018-01-27T23:01:59.441Z,3.80
2018-01-27T23:04:26.922Z,4.27
2018-01-27T23:06:54.379Z,4.03
2018-01-27T23:09:21.866Z,4.13
2018-01-27T23:11:49.320Z,4.03
2018-01-27T23:14:16.800Z,4.73
2018-01-27T23:16:44.259Z,4.87
2018-01-27T23:19:11.732Z,4.80
2018-01-27T23:21:39.195Z,4.50
2018-01-27T23:24:06.670Z,4.80
2018-01-27T23:26:34.127Z,4.63
2018-01-27T23:29:01.600Z,4.73
2018-01-27T23:31:29.052Z,4.47
2018-01-27T23:33:56.535Z,5.40
2018-01-27T23:36:23.994Z,5.30
2018-01-27T23:38:51.473Z,5.00
2018-01-27T23:41:18.930Z,5.17
2018-01-27T23:43:46.417Z,5.83
2018-01-27T23:46:13.874Z,6.13
2018-01-27T23:48:41.355Z,5.27
2018-01-27T23:51:08.810Z,5.37
2018-01-27T23:53:36.279Z,5.17
2018-01-27T23:56:03.731Z,5.47
2018-01-27T23:58:31.207Z,4.90
